Terminal Aerodrome Forecast
Issued by NWS

Home | Current Version | Previous Version | Text Only | Print | Product List | Glossary On
Versions: 1 2 3 4 5 6 7 8 9 10 11 12 13 14 15 16 17 18 19 20 21 22 23 24 25
000
FTUS43 KDVN 191732
TAFBRL
TAF
KBRL 191732Z 1918/2018 VRB04KT 5SM BR BKN006
     FM191900 14005KT 6SM BR SCT006
     FM200500 15010KT P6SM SCT100
     FM201500 19012KT P6SM BKN100=

USA.gov is the U.S. government's official web portal to all federal, state and local government web resources and services.